Currently 75°F in Pinon Hills, California, USA
75°F
75°F / 64°F
4 mph N
0.00"
Monday, September 27, 2021 8:41 AM PDT

Pinon Hills, California Climate Summary
Typical July Day

Normal High:    92.5°F (33.6°C)
Normal Low:    67.0°F (19.5°C)
Average:    79.8°F (26.6°C)

Hour    Temperature    Wind Speed    Humidity
12:00 AM    73°F (23°C)    2 mph    34%
1:00 AM    72°F (22°C)    2 mph    33%
2:00 AM    71°F (22°C)    2 mph    33%
3:00 AM    70°F (21°C)    2 mph    34%
4:00 AM    69°F (21°C)    2 mph    35%
5:00 AM    69°F (20°C)    2 mph    35%
6:00 AM    69°F (20°C)    2 mph    35%
7:00 AM    73°F (23°C)    1 mph    33%
8:00 AM    78°F (25°C)    1 mph    28%
9:00 AM    81°F (27°C)    1 mph    25%
10:00 AM    83°F (29°C)    1 mph    23%
11:00 AM    86°F (30°C)    1 mph    20%
12:00 PM    88°F (31°C)    2 mph    19%
1:00 PM    89°F (32°C)    2 mph    17%
2:00 PM    90°F (32°C)    2 mph    17%
3:00 PM    91°F (33°C)    3 mph    17%
4:00 PM    90°F (32°C)    3 mph    17%
5:00 PM    90°F (32°C)    4 mph    18%
6:00 PM    88°F (31°C)    4 mph    20%
7:00 PM    86°F (30°C)    5 mph    22%
8:00 PM    82°F (28°C)    4 mph    26%
9:00 PM    78°F (26°C)    3 mph    28%
10:00 PM    76°F (24°C)    2 mph    31%
11:00 PM    74°F (23°C)    2 mph    33%
 

The Pinon Hills, California weather pages are a service of WeatherCurrents.
Copyright ©2021  WeatherCurrents. All rights reserved. - Submit questions and comments - Privacy Policy